createdAt,value
2023-05-01T00:00:34.388Z,4.60
2023-05-01T00:03:36.968Z,4.28
2023-05-01T00:06:39.081Z,4.43
2023-05-01T00:09:41.168Z,4.70
2023-05-01T00:12:43.199Z,4.78
2023-05-01T00:15:45.717Z,4.68
2023-05-01T00:18:48.213Z,4.90
2023-05-01T00:21:52.558Z,5.23
2023-05-01T00:24:54.900Z,5.50
2023-05-01T00:27:58.841Z,4.53
2023-05-01T00:31:00.952Z,4.45
2023-05-01T00:34:02.982Z,5.03
2023-05-01T00:37:04.947Z,4.67
2023-05-01T00:40:07.710Z,4.57
2023-05-01T00:43:10.330Z,4.90
2023-05-01T00:46:12.557Z,4.60
2023-05-01T00:49:15.198Z,4.70
2023-05-01T00:52:17.633Z,5.20
2023-05-01T00:55:19.894Z,4.25
2023-05-01T00:58:21.952Z,4.82
2023-05-01T01:01:24.300Z,4.87
2023-05-01T01:04:28.798Z,4.60
2023-05-01T01:07:40.021Z,5.07
2023-05-01T01:11:02.922Z,5.40
2023-05-01T01:14:09.003Z,4.30
2023-05-01T01:17:31.882Z,4.63
2023-05-01T01:20:38.251Z,4.88
2023-05-01T01:23:48.502Z,4.70
2023-05-01T01:27:02.612Z,5.60
2023-05-01T01:30:17.025Z,4.95
2023-05-01T01:33:37.541Z,4.75
2023-05-01T01:36:50.245Z,5.10
2023-05-01T01:39:55.479Z,4.63
2023-05-01T01:43:03.425Z,5.32
2023-05-01T01:46:06.250Z,4.50
2023-05-01T01:49:09.634Z,4.90
2023-05-01T01:52:13.122Z,4.67
2023-05-01T01:55:15.381Z,5.20
2023-05-01T01:58:17.334Z,4.80
2023-05-01T02:01:21.168Z,4.60
2023-05-01T02:04:23.139Z,5.00
2023-05-01T02:07:25.248Z,4.70
2023-05-01T02:10:27.905Z,4.60
2023-05-01T02:13:30.175Z,4.40
2023-05-01T02:16:33.667Z,5.40
2023-05-01T02:19:35.973Z,4.65
2023-05-01T02:22:38.593Z,4.95
2023-05-01T02:25:41.204Z,4.40
2023-05-01T02:28:43.266Z,4.20
2023-05-01T02:31:45.398Z,4.90
2023-05-01T02:34:47.428Z,4.20
2023-05-01T02:37:49.846Z,5.30
2023-05-01T02:40:52.456Z,4.77
2023-05-01T02:43:56.950Z,5.30
2023-05-01T02:47:00.229Z,4.35
2023-05-01T02:50:02.399Z,4.70
2023-05-01T02:53:04.804Z,4.82
2023-05-01T02:56:23.074Z,4.72
2023-05-01T02:59:25.290Z,4.65
2023-05-01T03:02:27.628Z,4.50
2023-05-01T03:05:29.647Z,5.33
2023-05-01T03:08:32.061Z,4.53
2023-05-01T03:11:34.987Z,4.72
2023-05-01T03:14:38.046Z,5.03
2023-05-01T03:17:40.232Z,4.53
2023-05-01T03:20:51.315Z,4.75
2023-05-01T03:23:54.189Z,4.65
2023-05-01T03:26:56.753Z,4.80
2023-05-01T03:29:58.864Z,4.33
2023-05-01T03:33:01.480Z,4.60
2023-05-01T03:36:07.024Z,4.75
2023-05-01T03:39:10.245Z,4.37
2023-05-01T03:42:32.490Z,4.75
2023-05-01T03:45:44.115Z,4.65
2023-05-01T03:48:47.160Z,4.95
2023-05-01T03:51:49.412Z,5.32
2023-05-01T03:54:52.146Z,4.95
2023-05-01T03:57:57.454Z,5.55
2023-05-01T04:01:00.961Z,5.53
2023-05-01T04:04:03.547Z,5.50
2023-05-01T04:07:06.010Z,5.43
2023-05-01T04:10:09.908Z,5.40
2023-05-01T04:13:16.390Z,5.70
2023-05-01T04:16:18.511Z,5.80
2023-05-01T04:19:20.815Z,5.30
2023-05-01T04:22:27.332Z,5.40
2023-05-01T04:25:29.824Z,5.70
2023-05-01T04:28:37.541Z,4.68
2023-05-01T04:31:41.799Z,5.43
2023-05-01T04:34:44.926Z,5.10
2023-05-01T04:37:47.309Z,4.30
2023-05-01T04:40:49.710Z,4.13
2023-05-01T04:43:52.548Z,4.53
2023-05-01T04:46:54.744Z,4.18
2023-05-01T04:49:57.040Z,4.70
2023-05-01T04:52:59.652Z,3.10
2023-05-01T04:56:01.770Z,3.70
2023-05-01T04:59:05.966Z,3.77
2023-05-01T05:02:08.979Z,4.10
2023-05-01T05:05:11.006Z,3.55
2023-05-01T05:08:13.494Z,3.17
2023-05-01T05:11:20.183Z,3.33
2023-05-01T05:14:42.895Z,3.28
2023-05-01T05:17:45.784Z,2.75
2023-05-01T05:20:48.550Z,2.90
2023-05-01T05:23:51.138Z,2.80
2023-05-01T05:26:53.353Z,2.60
2023-05-01T05:29:56.139Z,2.38
2023-05-01T05:32:58.485Z,2.50
2023-05-01T05:36:00.537Z,2.07
2023-05-01T05:39:08.548Z,1.83
2023-05-01T05:42:11.287Z,2.40
2023-05-01T05:45:13.457Z,1.70
2023-05-01T05:48:16.068Z,2.13
2023-05-01T05:51:19.537Z,1.98
2023-05-01T05:54:22.354Z,2.05
2023-05-01T05:57:24.892Z,1.60
2023-05-01T06:00:27.395Z,1.88
2023-05-01T06:03:31.171Z,1.83
2023-05-01T06:06:36.576Z,1.65
2023-05-01T06:09:38.689Z,1.95
2023-05-01T06:12:44.107Z,1.80
2023-05-01T06:15:49.176Z,1.30
2023-05-01T06:18:51.557Z,1.60
2023-05-01T06:21:54.028Z,1.60
2023-05-01T06:24:56.667Z,1.67
2023-05-01T06:28:00.240Z,1.83
2023-05-01T06:31:02.232Z,2.45
2023-05-01T06:34:08.500Z,1.53
2023-05-01T06:37:21.106Z,1.70
2023-05-01T06:40:23.477Z,1.63
2023-05-01T06:43:30.834Z,2.55
2023-05-01T06:46:33.311Z,2.15
2023-05-01T06:49:35.798Z,1.63
2023-05-01T06:52:37.815Z,1.63
2023-05-01T06:55:41.177Z,1.75
2023-05-01T06:58:43.277Z,1.90
2023-05-01T07:01:45.376Z,1.60
2023-05-01T07:04:47.411Z,1.80
2023-05-01T07:07:57.986Z,1.48
2023-05-01T07:11:00.182Z,1.70
2023-05-01T07:14:02.384Z,1.52
2023-05-01T07:17:04.448Z,1.70
2023-05-01T07:20:06.891Z,1.20
2023-05-01T07:23:09.964Z,1.60
2023-05-01T07:26:11.902Z,1.67
2023-05-01T07:29:16.447Z,1.60
2023-05-01T07:32:18.491Z,1.80
2023-05-01T07:35:20.520Z,1.67
2023-05-01T07:38:22.893Z,1.92
2023-05-01T07:41:25.472Z,1.65
2023-05-01T07:44:27.911Z,1.40
2023-05-01T07:47:30.176Z,1.52
2023-05-01T07:50:33.047Z,1.47
2023-05-01T07:53:35.441Z,1.50
2023-05-01T07:56:37.891Z,2.08
2023-05-01T07:59:39.884Z,1.80
2023-05-01T08:02:42.490Z,1.50
2023-05-01T08:05:44.613Z,1.90
2023-05-01T08:08:46.955Z,1.70
2023-05-01T08:11:48.979Z,1.65
2023-05-01T08:14:51.001Z,1.80
2023-05-01T08:17:53.040Z,1.67
2023-05-01T08:20:55.397Z,1.90
2023-05-01T08:23:57.432Z,1.30
2023-05-01T08:26:59.800Z,1.50
2023-05-01T08:30:02.292Z,1.55
2023-05-01T08:33:05.049Z,1.83
2023-05-01T08:36:07.580Z,2.10
2023-05-01T08:39:09.534Z,1.58
2023-05-01T08:42:11.634Z,1.65
2023-05-01T08:45:13.677Z,1.58
2023-05-01T08:48:17.541Z,2.15
2023-05-01T08:51:21.309Z,1.43
2023-05-01T08:54:24.388Z,1.83
2023-05-01T08:57:26.508Z,1.70
2023-05-01T09:00:28.922Z,1.75
2023-05-01T09:03:32.814Z,1.67
2023-05-01T09:06:35.340Z,1.23
2023-05-01T09:09:37.932Z,2.13
2023-05-01T09:12:41.116Z,1.40
2023-05-01T09:15:43.236Z,1.73
2023-05-01T09:18:45.510Z,1.77
2023-05-01T09:21:48.111Z,1.90
2023-05-01T09:24:50.041Z,1.50
2023-05-01T09:27:52.366Z,2.20
2023-05-01T09:30:54.774Z,3.45
2023-05-01T09:33:57.672Z,2.00
2023-05-01T09:36:59.683Z,2.03
2023-05-01T09:40:05.578Z,1.52
2023-05-01T09:43:08.977Z,2.00
2023-05-01T09:46:13.020Z,1.70
2023-05-01T09:49:15.568Z,2.00
2023-05-01T09:52:18.168Z,1.73
2023-05-01T09:55:20.460Z,1.48
2023-05-01T09:58:28.573Z,1.90
2023-05-01T10:01:39.986Z,1.92
2023-05-01T10:04:42.305Z,2.00
2023-05-01T10:08:01.107Z,1.53
2023-05-01T10:11:05.271Z,1.88
2023-05-01T10:14:10.388Z,2.30
2023-05-01T10:17:19.912Z,2.40
2023-05-01T10:20:22.080Z,1.95
2023-05-01T10:23:25.439Z,1.90
2023-05-01T10:26:27.620Z,1.80
2023-05-01T10:29:29.709Z,1.67
2023-05-01T10:32:32.755Z,1.70
2023-05-01T10:35:38.388Z,1.70
2023-05-01T10:38:41.385Z,1.80
2023-05-01T10:41:58.912Z,1.42
2023-05-01T10:45:20.893Z,2.00
2023-05-01T10:48:37.935Z,1.98
2023-05-01T10:51:58.513Z,1.77
2023-05-01T10:55:19.617Z,1.70
2023-05-01T10:58:36.785Z,1.77
2023-05-01T11:01:39.950Z,1.52
2023-05-01T11:04:48.358Z,1.65
2023-05-01T11:08:10.420Z,1.70
2023-05-01T11:11:22.821Z,1.70
2023-05-01T11:14:25.803Z,1.65
2023-05-01T11:17:43.279Z,1.80
2023-05-01T11:20:46.123Z,2.13
2023-05-01T11:23:48.131Z,1.73
2023-05-01T11:26:50.080Z,1.77
2023-05-01T11:29:52.069Z,1.60
2023-05-01T11:32:54.732Z,1.90
2023-05-01T11:35:58.263Z,1.50
2023-05-01T11:39:00.999Z,1.70
2023-05-01T11:42:07.174Z,1.90
2023-05-01T11:45:11.213Z,1.98
2023-05-01T11:48:19.231Z,1.98
2023-05-01T11:51:21.380Z,1.98
2023-05-01T11:54:23.716Z,2.00
2023-05-01T11:57:26.303Z,1.90
2023-05-01T12:00:28.851Z,1.40
2023-05-01T12:03:34.888Z,1.45
2023-05-01T12:06:40.716Z,1.60
2023-05-01T12:09:43.932Z,1.50
2023-05-01T12:12:45.945Z,1.50
2023-05-01T12:15:51.744Z,1.23
2023-05-01T12:18:53.990Z,1.20
2023-05-01T12:22:05.489Z,1.50
2023-05-01T12:25:07.814Z,1.20
2023-05-01T12:28:11.357Z,1.50
2023-05-01T12:31:13.403Z,1.67
2023-05-01T12:34:15.619Z,1.60
2023-05-01T12:37:17.952Z,1.60
2023-05-01T12:40:22.950Z,1.40
2023-05-01T12:43:35.712Z,1.10
2023-05-01T12:46:38.325Z,1.15
2023-05-01T12:49:40.719Z,1.42
2023-05-01T12:52:42.977Z,1.20
2023-05-01T12:55:48.427Z,1.27
2023-05-01T12:58:51.106Z,1.30
2023-05-01T13:02:00.651Z,1.10
2023-05-01T13:05:07.970Z,1.50
2023-05-01T13:08:09.962Z,1.10
2023-05-01T13:11:16.334Z,1.10
2023-05-01T13:14:18.674Z,0.90
2023-05-01T13:17:27.121Z,1.20
2023-05-01T13:20:29.228Z,1.10
2023-05-01T13:23:31.401Z,1.15
2023-05-01T13:26:35.824Z,1.10
2023-05-01T13:29:38.561Z,1.27
2023-05-01T13:32:41.293Z,1.02
2023-05-01T13:35:43.473Z,1.23
2023-05-01T13:38:50.960Z,1.10
2023-05-01T13:41:53.125Z,1.30
2023-05-01T13:44:55.594Z,1.10
2023-05-01T13:47:57.615Z,1.30
2023-05-01T13:50:59.624Z,1.83
2023-05-01T13:54:02.174Z,1.38
2023-05-01T13:57:04.177Z,1.20
2023-05-01T14:00:08.612Z,1.20
2023-05-01T14:03:15.051Z,1.10
2023-05-01T14:06:20.835Z,0.98
2023-05-01T14:09:23.061Z,1.20
2023-05-01T14:12:34.034Z,0.95
2023-05-01T14:15:36.076Z,1.13
2023-05-01T14:18:47.538Z,1.00
2023-05-01T14:21:53.095Z,1.17
2023-05-01T14:24:55.645Z,1.10
2023-05-01T14:27:58.641Z,1.27
2023-05-01T14:31:01.186Z,1.20
2023-05-01T14:34:06.360Z,0.90
2023-05-01T14:37:11.676Z,1.30
2023-05-01T14:40:13.795Z,1.40
2023-05-01T14:43:16.916Z,1.17
2023-05-01T14:46:27.465Z,1.00
2023-05-01T14:49:29.698Z,0.93
2023-05-01T14:52:31.978Z,1.20
2023-05-01T14:55:34.851Z,1.13
2023-05-01T14:58:37.173Z,1.10
2023-05-01T15:01:39.825Z,1.10
2023-05-01T15:04:44.833Z,1.17
2023-05-01T15:07:47.246Z,1.35
2023-05-01T15:10:49.267Z,1.20
2023-05-01T15:13:51.673Z,1.30
2023-05-01T15:16:53.804Z,1.17
2023-05-01T15:19:56.282Z,1.20
2023-05-01T15:22:58.709Z,1.27
2023-05-01T15:26:01.737Z,1.20
2023-05-01T15:29:03.772Z,1.17
2023-05-01T15:32:12.504Z,1.30
2023-05-01T15:35:16.613Z,1.15
2023-05-01T15:38:21.015Z,1.25
2023-05-01T15:41:23.012Z,1.40
2023-05-01T15:44:25.961Z,1.33
2023-05-01T15:47:28.375Z,1.30
2023-05-01T15:50:30.741Z,1.17
2023-05-01T15:53:32.824Z,1.17
2023-05-01T15:56:36.776Z,1.10
2023-05-01T15:59:41.985Z,1.20
2023-05-01T16:02:44.739Z,1.20
2023-05-01T16:05:47.305Z,1.00
2023-05-01T16:08:49.974Z,1.30
2023-05-01T16:11:52.223Z,1.20
2023-05-01T16:14:54.522Z,1.20
2023-05-01T16:17:57.074Z,1.00
2023-05-01T16:20:59.279Z,1.00
2023-05-01T16:24:02.050Z,1.50
2023-05-01T16:27:04.212Z,1.30
2023-05-01T16:30:07.264Z,1.27
2023-05-01T16:33:18.445Z,0.93
2023-05-01T16:36:21.486Z,0.93
2023-05-01T16:39:24.298Z,1.10
2023-05-01T16:42:26.392Z,1.00
2023-05-01T16:45:29.081Z,1.05
2023-05-01T16:48:31.607Z,1.03
2023-05-01T16:51:33.623Z,1.00
2023-05-01T16:54:36.275Z,0.90
2023-05-01T16:57:38.309Z,1.17
2023-05-01T17:00:41.303Z,0.80
2023-05-01T17:03:43.778Z,1.40
2023-05-01T17:06:45.853Z,2.30
2023-05-01T17:09:48.258Z,2.80
2023-05-01T17:12:50.302Z,1.27
2023-05-01T17:15:52.917Z,1.25
2023-05-01T17:18:54.952Z,1.73
2023-05-01T17:21:58.222Z,1.20
2023-05-01T17:25:03.021Z,1.40
2023-05-01T17:28:05.131Z,1.10
2023-05-01T17:31:07.472Z,1.35
2023-05-01T17:34:09.481Z,1.50
2023-05-01T17:37:11.900Z,1.70
2023-05-01T17:40:14.387Z,2.03
2023-05-01T17:43:16.400Z,1.65
2023-05-01T17:46:20.227Z,3.45
2023-05-01T17:49:23.626Z,6.10
2023-05-01T17:52:26.022Z,7.28
2023-05-01T17:55:28.903Z,6.70
2023-05-01T17:58:31.392Z,9.43
2023-05-01T18:01:33.837Z,3.97
2023-05-01T18:04:37.436Z,2.43
2023-05-01T18:07:41.009Z,2.00
2023-05-01T18:10:43.423Z,2.10
2023-05-01T18:13:48.144Z,2.40
2023-05-01T18:16:50.573Z,1.98
2023-05-01T18:19:52.595Z,1.37
2023-05-01T18:22:54.668Z,1.63
2023-05-01T18:25:57.093Z,1.40
2023-05-01T18:28:59.186Z,1.60
2023-05-01T18:32:02.111Z,2.35
2023-05-01T18:35:04.719Z,1.90
2023-05-01T18:38:07.024Z,1.52
2023-05-01T18:41:09.438Z,2.00
2023-05-01T18:44:11.829Z,2.33
2023-05-01T18:47:13.971Z,2.83
2023-05-01T18:50:21.455Z,2.37
2023-05-01T18:53:23.573Z,2.88
2023-05-01T18:56:27.584Z,2.60
2023-05-01T18:59:31.147Z,2.03
2023-05-01T19:02:33.198Z,2.28
2023-05-01T19:05:35.335Z,1.97
2023-05-01T19:08:37.490Z,2.67
2023-05-01T19:11:39.655Z,2.72
2023-05-01T19:14:42.176Z,2.80
2023-05-01T19:17:44.735Z,2.78
2023-05-01T19:20:46.780Z,2.77
2023-05-01T19:23:49.145Z,2.95
2023-05-01T19:26:51.240Z,2.88
2023-05-01T19:29:54.667Z,2.15
2023-05-01T19:32:59.953Z,2.03
2023-05-01T19:36:02.560Z,2.07
2023-05-01T19:39:04.925Z,2.22
2023-05-01T19:42:07.369Z,2.15
2023-05-01T19:45:09.636Z,2.08
2023-05-01T19:48:12.163Z,1.80
2023-05-01T19:51:14.289Z,1.80
2023-05-01T19:54:17.514Z,2.00
2023-05-01T19:57:19.534Z,1.80
2023-05-01T20:00:22.060Z,1.80
2023-05-01T20:03:24.218Z,2.08
2023-05-01T20:06:26.574Z,1.90
2023-05-01T20:09:29.151Z,2.75
2023-05-01T20:12:32.635Z,2.08
2023-05-01T20:15:35.388Z,1.90
2023-05-01T20:18:37.400Z,2.10
2023-05-01T20:21:39.718Z,2.07
2023-05-01T20:24:41.709Z,2.00
2023-05-01T20:27:44.158Z,2.13
2023-05-01T20:30:46.600Z,2.80
2023-05-01T20:33:49.096Z,2.58
2023-05-01T20:36:51.464Z,2.30
2023-05-01T20:39:53.406Z,2.20
2023-05-01T20:42:55.709Z,2.50
2023-05-01T20:45:58.275Z,2.85
2023-05-01T20:49:00.390Z,2.47
2023-05-01T20:52:02.921Z,2.10
2023-05-01T20:55:06.004Z,2.13
2023-05-01T20:58:08.079Z,2.13
2023-05-01T21:01:10.894Z,2.20
2023-05-01T21:04:13.707Z,1.80
2023-05-01T21:07:16.049Z,1.93
2023-05-01T21:10:18.018Z,2.10
2023-05-01T21:13:21.393Z,2.42
2023-05-01T21:16:23.850Z,2.10
2023-05-01T21:19:26.058Z,1.73
2023-05-01T21:22:28.040Z,1.80
2023-05-01T21:25:32.054Z,2.00
2023-05-01T21:28:34.133Z,2.30
2023-05-01T21:31:37.038Z,1.88
2023-05-01T21:34:39.041Z,1.60
2023-05-01T21:37:43.535Z,1.70
2023-05-01T21:40:46.263Z,2.03
2023-05-01T21:43:48.259Z,1.80
2023-05-01T21:46:58.324Z,1.77
2023-05-01T21:50:07.273Z,1.88
2023-05-01T21:53:09.292Z,1.53
2023-05-01T21:56:11.445Z,1.85
2023-05-01T21:59:13.354Z,1.88
2023-05-01T22:02:15.460Z,1.80
2023-05-01T22:05:18.297Z,2.20
2023-05-01T22:08:20.319Z,2.23
2023-05-01T22:11:24.372Z,1.67
2023-05-01T22:14:33.673Z,1.85
2023-05-01T22:17:42.190Z,1.80
2023-05-01T22:20:44.554Z,2.28
2023-05-01T22:23:46.964Z,2.40
2023-05-01T22:26:50.183Z,1.90
2023-05-01T22:29:52.597Z,2.00
2023-05-01T22:32:54.713Z,1.80
2023-05-01T22:35:57.510Z,1.88
2023-05-01T22:38:59.657Z,2.23
2023-05-01T22:42:02.486Z,1.80
2023-05-01T22:45:04.647Z,1.92
2023-05-01T22:48:06.927Z,1.65
2023-05-01T22:51:09.046Z,1.77
2023-05-01T22:54:11.471Z,1.80
2023-05-01T22:57:13.824Z,2.00
2023-05-01T23:00:16.915Z,1.65
2023-05-01T23:03:18.962Z,1.95
2023-05-01T23:06:21.357Z,1.83
2023-05-01T23:09:23.667Z,2.43
2023-05-01T23:12:25.978Z,1.88
2023-05-01T23:15:28.327Z,1.92
2023-05-01T23:18:31.686Z,1.60
2023-05-01T23:21:33.710Z,1.70
2023-05-01T23:24:43.300Z,1.70
2023-05-01T23:27:45.325Z,1.60
2023-05-01T23:30:49.438Z,2.42
2023-05-01T23:33:52.159Z,1.65
2023-05-01T23:36:54.178Z,2.03
2023-05-01T23:39:58.693Z,2.07
2023-05-01T23:43:00.859Z,1.60
2023-05-01T23:46:03.001Z,1.83
2023-05-01T23:49:05.556Z,1.80
2023-05-01T23:52:07.667Z,1.50
2023-05-01T23:55:10.113Z,1.50
2023-05-01T23:58:12.135Z,1.70
